createdAt,value
2018-07-21T00:01:37.794Z,56.11
2018-07-21T00:04:08.187Z,56.09
2018-07-21T00:06:37.998Z,56.28
2018-07-21T00:09:10.353Z,56.29
2018-07-21T00:11:40.957Z,56.66
2018-07-21T00:14:10.741Z,56.91
2018-07-21T00:16:40.415Z,56.82
2018-07-21T00:19:10.405Z,57.80
2018-07-21T00:21:40.423Z,57.46
2018-07-21T00:24:09.950Z,57.34
2018-07-21T00:26:44.562Z,57.38
2018-07-21T00:29:14.189Z,58.17
2018-07-21T00:31:44.256Z,58.63
2018-07-21T00:34:13.926Z,58.52
2018-07-21T00:36:43.716Z,57.80
2018-07-21T00:39:14.835Z,58.50
2018-07-21T00:41:45.137Z,58.02
2018-07-21T00:44:14.991Z,58.28
2018-07-21T00:46:44.694Z,58.62
2018-07-21T00:49:14.186Z,58.72
2018-07-21T00:51:44.323Z,59.19
2018-07-21T00:54:13.885Z,59.12
2018-07-21T00:56:43.558Z,59.34
2018-07-21T00:59:13.047Z,59.53
2018-07-21T01:01:42.902Z,59.50
2018-07-21T01:04:12.575Z,59.46
2018-07-21T01:06:42.530Z,59.53
2018-07-21T01:09:12.436Z,59.76
2018-07-21T01:11:41.927Z,60.04
2018-07-21T01:14:11.826Z,59.82
2018-07-21T01:16:41.954Z,59.44
2018-07-21T01:19:11.795Z,59.41
2018-07-21T01:21:41.308Z,58.84
2018-07-21T01:24:11.079Z,59.04
2018-07-21T01:26:40.971Z,58.81
2018-07-21T01:29:10.576Z,58.86
2018-07-21T01:31:40.255Z,58.96
2018-07-21T01:34:09.802Z,59.19
2018-07-21T01:36:39.730Z,59.36
2018-07-21T01:39:11.139Z,60.02
2018-07-21T01:41:41.203Z,59.77
2018-07-21T01:44:10.718Z,60.03
2018-07-21T01:46:40.503Z,60.08
2018-07-21T01:49:10.327Z,60.24
2018-07-21T01:51:40.002Z,60.11
2018-07-21T01:54:09.797Z,60.46
2018-07-21T01:56:39.456Z,60.95
2018-07-21T01:59:09.119Z,60.85
2018-07-21T02:01:38.920Z,60.77
2018-07-21T02:04:08.649Z,61.27
2018-07-21T02:06:38.208Z,61.30
2018-07-21T02:09:09.392Z,62.12
2018-07-21T02:11:39.389Z,61.87
2018-07-21T02:14:09.476Z,62.37
2018-07-21T02:16:39.142Z,62.49
2018-07-21T02:19:08.896Z,62.43
2018-07-21T02:21:38.785Z,62.49
2018-07-21T02:24:08.652Z,62.35
2018-07-21T02:26:38.263Z,62.67
2018-07-21T02:29:07.773Z,62.72
2018-07-21T02:31:37.500Z,63.06
2018-07-21T02:34:07.169Z,63.19
2018-07-21T02:36:36.768Z,63.73
2018-07-21T02:39:09.120Z,63.54
2018-07-21T02:41:38.611Z,63.67
2018-07-21T02:44:08.290Z,63.62
2018-07-21T02:46:38.090Z,63.60
2018-07-21T02:49:08.088Z,63.83
2018-07-21T02:51:37.712Z,64.12
2018-07-21T02:54:07.621Z,64.03
2018-07-21T02:56:37.159Z,63.74
2018-07-21T02:59:06.983Z,63.77
2018-07-21T03:01:36.668Z,63.70
2018-07-21T03:04:06.410Z,63.83
2018-07-21T03:06:36.186Z,64.09
2018-07-21T03:09:08.018Z,64.16
2018-07-21T03:11:37.591Z,64.58
2018-07-21T03:14:07.204Z,64.65
2018-07-21T03:16:37.385Z,64.47
2018-07-21T03:19:07.489Z,64.56
2018-07-21T03:21:37.422Z,64.20
2018-07-21T03:24:07.430Z,63.77
2018-07-21T03:26:37.308Z,63.40
2018-07-21T03:29:06.894Z,63.33
2018-07-21T03:31:36.924Z,63.00
2018-07-21T03:34:06.922Z,62.89
2018-07-21T03:36:36.525Z,62.29
2018-07-21T03:39:09.229Z,62.50
2018-07-21T03:41:39.102Z,63.36
2018-07-21T03:44:08.787Z,63.14
2018-07-21T03:46:38.444Z,63.01
2018-07-21T03:49:08.021Z,63.54
2018-07-21T03:51:37.642Z,63.43
2018-07-21T03:54:07.416Z,63.54
2018-07-21T03:56:37.207Z,63.62
2018-07-21T03:59:07.119Z,63.97
2018-07-21T04:01:36.832Z,64.32
2018-07-21T04:04:07.131Z,64.45
2018-07-21T04:06:36.966Z,64.45
2018-07-21T04:09:08.722Z,64.49
2018-07-21T04:11:38.666Z,64.12
2018-07-21T04:14:08.742Z,64.16
2018-07-21T04:16:38.385Z,64.84
2018-07-21T04:19:08.681Z,64.48
2018-07-21T04:21:38.245Z,63.73
2018-07-21T04:24:08.264Z,63.54
2018-07-21T04:26:38.202Z,63.55
2018-07-21T04:29:08.066Z,63.58
2018-07-21T04:31:37.782Z,63.94
2018-07-21T04:34:07.678Z,63.19
2018-07-21T04:36:37.491Z,62.42
2018-07-21T04:39:09.824Z,62.69
2018-07-21T04:41:40.242Z,62.42
2018-07-21T04:44:10.237Z,61.97
2018-07-21T04:46:40.099Z,61.62
2018-07-21T04:49:09.954Z,60.55
2018-07-21T04:51:40.051Z,60.43
2018-07-21T04:54:09.771Z,60.52
2018-07-21T04:56:39.618Z,60.29
2018-07-21T04:59:09.256Z,60.44
2018-07-21T05:01:39.106Z,60.32
2018-07-21T05:04:09.084Z,60.62
2018-07-21T05:06:38.626Z,60.47
2018-07-21T05:09:10.449Z,60.26
2018-07-21T05:11:40.442Z,59.98
2018-07-21T05:14:10.373Z,60.26
2018-07-21T05:16:40.533Z,60.01
2018-07-21T05:19:10.179Z,59.16
2018-07-21T05:21:40.069Z,58.15
2018-07-21T05:24:09.916Z,58.65
2018-07-21T05:26:39.801Z,58.27
2018-07-21T05:29:09.528Z,53.27
2018-07-21T05:31:39.215Z,52.86
2018-07-21T05:34:09.069Z,52.60
2018-07-21T05:36:39.097Z,53.97
2018-07-21T05:39:10.077Z,53.22
2018-07-21T05:41:40.242Z,52.40
2018-07-21T05:44:10.106Z,51.48
2018-07-21T05:46:40.151Z,50.15
2018-07-21T05:49:09.809Z,49.36
2018-07-21T05:51:40.049Z,49.89
2018-07-21T05:54:10.089Z,48.03
2018-07-21T05:56:39.709Z,45.97
2018-07-21T05:59:09.311Z,47.63
2018-07-21T06:01:39.375Z,47.90
2018-07-21T06:04:09.428Z,45.30
2018-07-21T06:06:39.428Z,45.70
2018-07-21T06:09:10.617Z,47.42
2018-07-21T06:11:40.605Z,46.13
2018-07-21T06:14:10.691Z,44.58
2018-07-21T06:16:40.422Z,43.50
2018-07-21T06:19:10.357Z,41.64
2018-07-21T06:21:40.102Z,43.26
2018-07-21T06:24:09.815Z,42.40
2018-07-21T06:26:39.583Z,43.05
2018-07-21T06:29:15.571Z,42.11
2018-07-21T06:31:45.423Z,42.75
2018-07-21T06:34:15.617Z,43.21
2018-07-21T06:36:45.283Z,44.37
2018-07-21T06:39:15.312Z,43.57
2018-07-21T06:41:45.374Z,43.15
2018-07-21T06:44:15.215Z,44.02
2018-07-21T06:46:44.971Z,42.96
2018-07-21T06:49:14.548Z,42.74
2018-07-21T06:51:44.251Z,43.58
2018-07-21T06:54:13.833Z,43.64
2018-07-21T06:56:43.588Z,42.63
2018-07-21T06:59:13.280Z,42.96
2018-07-21T07:01:43.056Z,42.23
2018-07-21T07:04:12.753Z,42.99
2018-07-21T07:06:42.466Z,43.01
2018-07-21T07:09:12.715Z,43.45
2018-07-21T07:11:42.467Z,44.16
2018-07-21T07:14:12.074Z,44.06
2018-07-21T07:16:42.144Z,43.43
2018-07-21T07:19:11.768Z,43.28
2018-07-21T07:21:41.621Z,42.28
2018-07-21T07:24:11.446Z,43.05
2018-07-21T07:26:41.023Z,43.26
2018-07-21T07:29:10.798Z,42.65
2018-07-21T07:31:40.442Z,43.91
2018-07-21T07:34:10.114Z,43.07
2018-07-21T07:36:39.865Z,43.21
2018-07-21T07:39:10.850Z,42.90
2018-07-21T07:41:40.867Z,43.12
2018-07-21T07:44:10.874Z,42.21
2018-07-21T07:46:40.497Z,41.39
2018-07-21T07:49:10.145Z,40.57
2018-07-21T07:51:39.758Z,40.44
2018-07-21T07:54:09.318Z,40.93
2018-07-21T07:56:39.143Z,41.44
2018-07-21T07:59:08.928Z,40.21
2018-07-21T08:01:38.702Z,40.51
2018-07-21T08:04:08.687Z,40.42
2018-07-21T08:06:38.254Z,39.39
2018-07-21T08:09:09.991Z,38.68
2018-07-21T08:11:40.199Z,38.03
2018-07-21T08:14:10.175Z,39.09
2018-07-21T08:16:39.963Z,39.49
2018-07-21T08:19:09.934Z,39.01
2018-07-21T08:21:39.470Z,37.59
2018-07-21T08:24:09.551Z,39.01
2018-07-21T08:26:39.185Z,38.19
2018-07-21T08:29:09.108Z,38.01
2018-07-21T08:31:38.850Z,38.81
2018-07-21T08:34:08.835Z,35.82
2018-07-21T08:36:38.567Z,36.33
2018-07-21T08:39:10.085Z,36.94
2018-07-21T08:41:40.031Z,36.62
2018-07-21T08:44:09.899Z,38.43
2018-07-21T08:46:39.674Z,37.62
2018-07-21T08:49:09.590Z,38.00
2018-07-21T08:51:39.349Z,37.24
2018-07-21T08:54:08.927Z,37.52
2018-07-21T08:56:38.723Z,36.31
2018-07-21T08:59:08.329Z,37.93
2018-07-21T09:01:38.078Z,38.27
2018-07-21T09:04:07.933Z,36.71
2018-07-21T09:06:37.859Z,35.79
2018-07-21T09:09:10.432Z,36.13
2018-07-21T09:11:40.771Z,35.88
2018-07-21T09:14:10.618Z,34.56
2018-07-21T09:16:40.348Z,34.58
2018-07-21T09:19:10.102Z,36.35
2018-07-21T09:21:39.687Z,35.12
2018-07-21T09:24:09.411Z,36.71
2018-07-21T09:26:38.966Z,34.72
2018-07-21T09:29:08.658Z,32.83
2018-07-21T09:31:38.180Z,33.61
2018-07-21T09:34:07.819Z,31.06
2018-07-21T09:36:37.415Z,32.87
2018-07-21T09:39:09.435Z,31.61
2018-07-21T09:41:39.433Z,33.39
2018-07-21T09:44:09.108Z,34.70
2018-07-21T09:46:38.877Z,33.99
2018-07-21T09:49:08.545Z,35.13
2018-07-21T09:51:38.473Z,33.32
2018-07-21T09:54:08.379Z,33.57
2018-07-21T09:56:38.133Z,32.90
2018-07-21T09:59:07.716Z,33.85
2018-07-21T10:01:37.962Z,33.87
2018-07-21T10:04:07.500Z,32.30
2018-07-21T10:06:37.187Z,32.31
2018-07-21T10:09:09.382Z,30.30
2018-07-21T10:11:39.135Z,30.69
2018-07-21T10:14:09.319Z,32.22
2018-07-21T10:16:39.042Z,31.17
2018-07-21T10:19:08.756Z,32.45
2018-07-21T10:21:38.509Z,32.20
2018-07-21T10:24:13.424Z,32.21
2018-07-21T10:26:48.454Z,30.85
2018-07-21T10:29:18.356Z,31.03
2018-07-21T10:31:48.354Z,32.51
2018-07-21T10:34:19.567Z,31.41
2018-07-21T10:36:49.138Z,32.06
2018-07-21T10:39:18.773Z,31.23
2018-07-21T10:41:48.674Z,29.70
2018-07-21T10:44:18.430Z,29.75
2018-07-21T10:46:48.082Z,29.52
2018-07-21T10:49:17.827Z,29.94
2018-07-21T10:51:47.861Z,28.96
2018-07-21T10:54:17.830Z,27.64
2018-07-21T10:56:47.749Z,29.94
2018-07-21T10:59:17.698Z,29.29
2018-07-21T11:01:47.650Z,28.22
2018-07-21T11:04:17.473Z,27.95
2018-07-21T11:06:47.033Z,28.83
2018-07-21T11:09:16.550Z,28.95
2018-07-21T11:11:46.219Z,28.31
2018-07-21T11:14:15.707Z,27.95
2018-07-21T11:16:45.667Z,28.01
2018-07-21T11:19:15.701Z,27.08
2018-07-21T11:21:45.897Z,27.62
2018-07-21T11:24:15.882Z,25.06
2018-07-21T11:26:45.850Z,26.27
2018-07-21T11:29:15.759Z,25.76
2018-07-21T11:31:46.167Z,27.00
2018-07-21T11:34:15.982Z,25.40
2018-07-21T11:36:46.257Z,25.94
2018-07-21T11:39:15.844Z,26.00
2018-07-21T11:41:45.558Z,25.08
2018-07-21T11:44:15.250Z,26.36
2018-07-21T11:46:45.689Z,24.90
2018-07-21T11:49:15.709Z,24.78
2018-07-21T11:51:45.489Z,23.66
2018-07-21T11:54:15.591Z,24.13
2018-07-21T11:56:45.442Z,23.62
2018-07-21T11:59:15.958Z,24.98
2018-07-21T12:01:45.441Z,23.22
2018-07-21T12:04:15.322Z,23.90
2018-07-21T12:06:45.225Z,24.03
2018-07-21T12:09:15.166Z,23.55
2018-07-21T12:11:44.771Z,22.98
2018-07-21T12:14:14.591Z,22.25
2018-07-21T12:16:44.094Z,23.31
2018-07-21T12:19:14.076Z,22.63
2018-07-21T12:21:44.241Z,24.31
2018-07-21T12:24:13.897Z,22.45
2018-07-21T12:26:43.962Z,22.60
2018-07-21T12:29:13.662Z,23.70
2018-07-21T12:31:43.572Z,22.95
2018-07-21T12:34:13.301Z,25.05
2018-07-21T12:36:43.011Z,23.50
2018-07-21T12:39:12.977Z,23.17
2018-07-21T12:41:42.907Z,22.44
2018-07-21T12:44:12.494Z,23.00
2018-07-21T12:46:42.092Z,22.73
2018-07-21T12:49:11.954Z,22.65
2018-07-21T12:51:41.974Z,23.31
2018-07-21T12:54:11.897Z,23.02
2018-07-21T12:56:42.007Z,22.68
2018-07-21T12:59:11.806Z,22.89
2018-07-21T13:01:41.515Z,23.90
2018-07-21T13:04:11.656Z,22.56
2018-07-21T13:06:41.286Z,20.87
2018-07-21T13:09:12.858Z,21.10
2018-07-21T13:11:42.920Z,22.06
2018-07-21T13:14:12.786Z,20.62
2018-07-21T13:16:42.596Z,20.43
2018-07-21T13:19:12.357Z,20.29
2018-07-21T13:21:42.215Z,21.00
2018-07-21T13:24:11.755Z,21.29
2018-07-21T13:26:41.338Z,20.90
2018-07-21T13:29:11.100Z,20.35
2018-07-21T13:31:41.389Z,18.86
2018-07-21T13:34:11.371Z,19.21
2018-07-21T13:36:41.149Z,20.04
2018-07-21T13:39:12.191Z,19.35
2018-07-21T13:41:42.132Z,20.01
2018-07-21T13:44:11.907Z,19.68
2018-07-21T13:46:41.940Z,20.25
2018-07-21T13:49:12.091Z,19.87
2018-07-21T13:51:42.110Z,17.92
2018-07-21T13:54:11.721Z,18.60
2018-07-21T13:56:41.784Z,20.12
2018-07-21T13:59:11.402Z,20.67
2018-07-21T14:01:41.321Z,20.22
2018-07-21T14:04:11.043Z,20.94
2018-07-21T14:06:40.779Z,21.69
2018-07-21T14:09:10.789Z,22.09
2018-07-21T14:11:40.635Z,21.91
2018-07-21T14:14:10.775Z,21.47
2018-07-21T14:16:40.416Z,19.85
2018-07-21T14:19:10.009Z,19.00
2018-07-21T14:21:40.161Z,19.03
2018-07-21T14:24:09.872Z,20.47
2018-07-21T14:26:39.444Z,21.49
2018-07-21T14:29:09.046Z,21.68
2018-07-21T14:31:38.587Z,21.32
2018-07-21T14:34:08.107Z,21.40
2018-07-21T14:36:38.026Z,20.75
2018-07-21T14:39:09.658Z,20.97
2018-07-21T14:41:40.171Z,20.95
2018-07-21T14:44:10.700Z,20.46
2018-07-21T14:46:40.969Z,20.74
2018-07-21T14:49:10.774Z,21.06
2018-07-21T14:51:40.704Z,21.20
2018-07-21T14:54:10.482Z,22.32
2018-07-21T14:56:40.097Z,20.87
2018-07-21T14:59:10.031Z,21.47
2018-07-21T15:01:40.135Z,22.43
2018-07-21T15:04:10.465Z,21.06
2018-07-21T15:06:40.250Z,20.91
2018-07-21T15:09:11.666Z,19.77
2018-07-21T15:11:41.648Z,19.39
2018-07-21T15:14:11.288Z,20.53
2018-07-21T15:16:41.047Z,20.06
2018-07-21T15:19:11.542Z,20.54
2018-07-21T15:21:41.333Z,20.13
2018-07-21T15:24:11.795Z,20.12
2018-07-21T15:26:41.556Z,21.80
2018-07-21T15:29:11.078Z,20.94
2018-07-21T15:31:41.061Z,21.79
2018-07-21T15:34:10.719Z,20.56
2018-07-21T15:36:40.382Z,20.77
2018-07-21T15:39:10.526Z,21.12
2018-07-21T15:41:40.354Z,21.10
2018-07-21T15:44:10.063Z,21.21
2018-07-21T15:46:40.112Z,21.41
2018-07-21T15:49:09.860Z,21.22
2018-07-21T15:51:40.010Z,21.40
2018-07-21T15:54:09.913Z,22.33
2018-07-21T15:56:39.979Z,22.22
2018-07-21T15:59:09.854Z,22.35
2018-07-21T16:01:39.422Z,22.20
2018-07-21T16:04:09.326Z,24.29
2018-07-21T16:06:39.154Z,23.18
2018-07-21T16:09:10.418Z,23.13
2018-07-21T16:11:40.434Z,22.70
2018-07-21T16:14:10.662Z,23.21
2018-07-21T16:16:40.569Z,23.14
2018-07-21T16:19:10.599Z,23.51
2018-07-21T16:21:40.451Z,24.14
2018-07-21T16:24:10.124Z,23.77
2018-07-21T16:26:40.482Z,23.49
2018-07-21T16:29:10.144Z,23.21
2018-07-21T16:31:39.685Z,23.55
2018-07-21T16:34:09.180Z,23.79
2018-07-21T16:36:38.707Z,24.45
2018-07-21T16:39:10.676Z,24.80
2018-07-21T16:41:40.240Z,24.96
2018-07-21T16:44:10.260Z,25.67
2018-07-21T16:46:40.244Z,26.25
2018-07-21T16:49:10.209Z,26.25
2018-07-21T16:51:39.914Z,26.76
2018-07-21T16:54:09.986Z,26.83
2018-07-21T16:56:40.427Z,28.09
2018-07-21T16:59:10.081Z,28.33
2018-07-21T17:01:39.875Z,27.46
2018-07-21T17:04:10.207Z,26.97
2018-07-21T17:06:40.675Z,26.33
2018-07-21T17:09:11.427Z,26.28
2018-07-21T17:11:41.076Z,25.85
2018-07-21T17:14:11.132Z,25.87
2018-07-21T17:16:40.864Z,26.67
2018-07-21T17:19:10.464Z,26.32
2018-07-21T17:21:40.254Z,26.99
2018-07-21T17:24:10.011Z,27.68
2018-07-21T17:26:40.116Z,28.12
2018-07-21T17:29:09.943Z,28.42
2018-07-21T17:31:39.761Z,28.79
2018-07-21T17:34:09.681Z,30.15
2018-07-21T17:36:39.868Z,30.81
2018-07-21T17:39:11.094Z,31.63
2018-07-21T17:41:41.190Z,32.10
2018-07-21T17:44:11.018Z,32.67
2018-07-21T17:46:40.642Z,33.42
2018-07-21T17:49:10.946Z,33.85
2018-07-21T17:51:40.871Z,35.14
2018-07-21T17:54:10.878Z,35.97
2018-07-21T17:56:40.511Z,36.83
2018-07-21T17:59:10.448Z,36.89
2018-07-21T18:01:40.031Z,37.30
2018-07-21T18:04:09.687Z,38.29
2018-07-21T18:06:39.278Z,38.79
2018-07-21T18:09:09.927Z,39.74
2018-07-21T18:11:39.577Z,39.79
2018-07-21T18:14:09.220Z,40.30
2018-07-21T18:16:38.783Z,40.05
2018-07-21T18:19:08.795Z,41.21
2018-07-21T18:21:38.859Z,40.64
2018-07-21T18:24:08.598Z,41.33
2018-07-21T18:26:38.482Z,41.70
2018-07-21T18:29:08.419Z,41.99
2018-07-21T18:31:38.537Z,42.08
2018-07-21T18:34:08.802Z,42.70
2018-07-21T18:36:38.647Z,42.04
2018-07-21T18:39:10.098Z,42.46
2018-07-21T18:41:40.206Z,42.30
2018-07-21T18:44:09.747Z,42.96
2018-07-21T18:46:39.249Z,42.52
2018-07-21T18:49:08.797Z,42.38
2018-07-21T18:51:38.627Z,43.03
2018-07-21T18:54:08.488Z,43.35
2018-07-21T18:56:38.422Z,43.79
2018-07-21T18:59:08.058Z,43.75
2018-07-21T19:01:37.684Z,44.40
2018-07-21T19:04:07.554Z,44.59
2018-07-21T19:06:37.226Z,44.35
2018-07-21T19:09:09.434Z,43.65
2018-07-21T19:11:39.384Z,44.16
2018-07-21T19:14:09.168Z,44.67
2018-07-21T19:16:40.502Z,44.76
2018-07-21T19:19:10.138Z,44.74
2018-07-21T19:21:40.635Z,45.75
2018-07-21T19:24:10.618Z,45.89
2018-07-21T19:26:45.371Z,46.23
2018-07-21T19:29:14.974Z,45.51
2018-07-21T19:31:50.034Z,45.74
2018-07-21T19:34:19.685Z,45.64
2018-07-21T19:36:49.525Z,45.06
2018-07-21T19:39:18.971Z,45.06
2018-07-21T19:41:53.807Z,45.31
2018-07-21T19:44:23.308Z,45.49
2018-07-21T19:46:52.957Z,45.88
2018-07-21T19:49:22.582Z,44.57
2018-07-21T19:51:52.203Z,44.94
2018-07-21T19:54:22.054Z,44.57
2018-07-21T19:56:52.281Z,43.81
2018-07-21T19:59:21.893Z,44.66
2018-07-21T20:01:51.564Z,43.89
2018-07-21T20:04:21.298Z,43.56
2018-07-21T20:06:51.159Z,43.14
2018-07-21T20:09:21.059Z,43.34
2018-07-21T20:11:50.933Z,42.59
2018-07-21T20:14:20.793Z,42.32
2018-07-21T20:16:50.679Z,43.20
2018-07-21T20:19:20.190Z,42.29
2018-07-21T20:21:49.766Z,41.90
2018-07-21T20:24:19.347Z,42.77
2018-07-21T20:26:49.379Z,41.88
2018-07-21T20:29:19.326Z,42.46
2018-07-21T20:31:49.047Z,42.87
2018-07-21T20:34:18.895Z,42.47
2018-07-21T20:36:48.810Z,42.37
2018-07-21T20:39:18.376Z,42.66
2018-07-21T20:41:48.144Z,43.86
2018-07-21T20:44:18.016Z,43.73
2018-07-21T20:46:47.953Z,43.77
2018-07-21T20:49:17.816Z,44.49
2018-07-21T20:51:47.716Z,45.09
2018-07-21T20:54:17.416Z,44.82
2018-07-21T20:56:47.015Z,45.31
2018-07-21T20:59:16.716Z,45.02
2018-07-21T21:01:46.527Z,45.35
2018-07-21T21:04:16.531Z,45.30
2018-07-21T21:06:46.157Z,44.93
2018-07-21T21:09:15.956Z,45.10
2018-07-21T21:11:45.923Z,45.33
2018-07-21T21:14:16.012Z,45.28
2018-07-21T21:16:45.750Z,46.79
2018-07-21T21:19:15.561Z,46.81
2018-07-21T21:21:45.339Z,47.11
2018-07-21T21:24:14.934Z,47.33
2018-07-21T21:26:44.600Z,47.01
2018-07-21T21:29:14.093Z,47.00
2018-07-21T21:31:43.913Z,47.03
2018-07-21T21:34:13.929Z,47.14
2018-07-21T21:36:43.811Z,47.27
2018-07-21T21:39:14.232Z,47.05
2018-07-21T21:41:43.967Z,48.00
2018-07-21T21:44:13.762Z,47.79
2018-07-21T21:46:43.607Z,47.99
2018-07-21T21:49:13.649Z,48.33
2018-07-21T21:51:43.363Z,48.41
2018-07-21T21:54:13.138Z,47.69
2018-07-21T21:56:42.702Z,48.27
2018-07-21T21:59:12.319Z,48.81
2018-07-21T22:01:42.004Z,49.09
2018-07-21T22:04:11.911Z,49.07
2018-07-21T22:06:41.838Z,50.16
2018-07-21T22:09:12.127Z,50.02
2018-07-21T22:11:42.046Z,49.70
2018-07-21T22:14:11.910Z,49.50
2018-07-21T22:16:41.780Z,49.61
2018-07-21T22:19:11.352Z,48.95
2018-07-21T22:21:41.374Z,49.68
2018-07-21T22:24:11.187Z,49.35
2018-07-21T22:26:40.849Z,49.87
2018-07-21T22:29:10.930Z,49.81
2018-07-21T22:31:40.426Z,49.67
2018-07-21T22:34:10.067Z,48.99
2018-07-21T22:36:39.571Z,48.61
2018-07-21T22:39:11.369Z,49.46
2018-07-21T22:41:41.757Z,50.20
2018-07-21T22:44:11.528Z,50.99
2018-07-21T22:46:41.142Z,50.45
2018-07-21T22:49:10.985Z,51.35
2018-07-21T22:51:40.511Z,50.66
2018-07-21T22:54:10.167Z,50.19
2018-07-21T22:56:39.890Z,50.85
2018-07-21T22:59:09.521Z,50.90
2018-07-21T23:01:39.566Z,51.30
2018-07-21T23:04:09.116Z,51.41
2018-07-21T23:06:38.771Z,51.61
2018-07-21T23:09:08.822Z,51.30
2018-07-21T23:11:39.041Z,51.26
2018-07-21T23:14:09.270Z,51.24
2018-07-21T23:16:38.978Z,51.09
2018-07-21T23:19:08.902Z,51.68
2018-07-21T23:21:38.628Z,52.83
2018-07-21T23:24:08.379Z,52.27
2018-07-21T23:26:38.268Z,51.63
2018-07-21T23:29:08.079Z,51.19
2018-07-21T23:31:37.767Z,51.10
2018-07-21T23:34:07.844Z,51.84
2018-07-21T23:36:37.883Z,52.67
2018-07-21T23:39:09.211Z,52.67
2018-07-21T23:41:38.728Z,53.36
2018-07-21T23:44:08.351Z,54.60
2018-07-21T23:46:37.946Z,55.30
2018-07-21T23:49:07.725Z,55.86
2018-07-21T23:51:37.731Z,56.31
2018-07-21T23:54:07.945Z,56.02
2018-07-21T23:56:37.694Z,55.28
2018-07-21T23:59:08.270Z,56.26
